»·PEaware :: N324PT KLAS-KLAX

N324PT :: KLAS-KLAX

FLIGHT INFORMATION

Flight Status: Arrived
Operator: Privately registered:
United States
More flights under this callsign
Pilot: Pedro T. (27113)
Aircraft: CESSNA 172 SKYHAWK
(C172)
More flights by this aircraft type
Origin: KLAS McCarran Intl
United States
Destination: KLAX Los Angeles Intl
United States
More flights between these airports :: More routes between these airports
Route: +LAS V538 GFS V210 HEC V12 PMD KIMMO3
File this flight plan on PilotEdge
Remarks: For Fun )
Altitude:
(Current/Filed)
10,000ft
Speed:
(Current/Filed)
100kts
Departed: 19-May-20 08:38 PM
Arrived: 19-May-20 10:53 PM
Distance/Time
Traveled:
205nm/2:15
Distance/Time
To Go:
Arrived

Flight Plot

Page will automatically refresh every two minutes.


Map Options




Map Legend


Flown Route
Filed Route
Departure Airport
Arrival Airport
Navaid (VOR, NDB)
Fix

Horizontal Profiles

Position Reports

Time Latitude Longitude Heading Altitude Ground
Speed
19-May-20 19:56 36.081235 -115.170528 89 2168ft 0kts
19-May-20 19:57 36.081235 -115.170528 89 2168ft 0kts
19-May-20 19:58 36.081235 -115.170528 89 2168ft 0kts
19-May-20 19:59 36.081235 -115.170528 89 2168ft 0kts
19-May-20 20:00 36.081235 -115.170528 89 2168ft 0kts
19-May-20 20:01 36.081235 -115.170528 89 2168ft 0kts
19-May-20 20:02 36.081235 -115.170528 89 2168ft 0kts
19-May-20 20:03 36.081235 -115.170528 89 2168ft 0kts
19-May-20 20:04 36.081235 -115.170528 89 2168ft 0kts
19-May-20 20:05 36.081235 -115.170528 89 2168ft 0kts
19-May-20 20:06 36.081235 -115.170528 89 2168ft 0kts
19-May-20 20:07 36.081235 -115.170528 89 2168ft 0kts
19-May-20 20:08 36.081235 -115.170528 89 2168ft 0kts
19-May-20 20:09 36.081235 -115.170528 89 2168ft 0kts
19-May-20 20:10 36.081235 -115.170528 89 2168ft 0kts
19-May-20 20:11 36.081235 -115.170528 89 2168ft 0kts
19-May-20 20:12 36.081235 -115.170528 89 2168ft 0kts
19-May-20 20:13 36.081235 -115.170528 89 2168ft 0kts
19-May-20 20:14 36.081235 -115.170528 89 2168ft 0kts
19-May-20 20:15 36.081235 -115.170528 89 2168ft 0kts
19-May-20 20:16 36.081235 -115.170528 89 2168ft 0kts
19-May-20 20:17 36.081235 -115.170528 89 2168ft 0kts
19-May-20 20:18 36.081235 -115.170528 89 2168ft 0kts
19-May-20 20:19 36.081235 -115.170528 89 2168ft 0kts
19-May-20 20:20 36.081235 -115.170528 89 2168ft 0kts
19-May-20 20:21 36.081235 -115.170528 89 2168ft 0kts
19-May-20 20:22 36.081235 -115.170528 89 2168ft 0kts
19-May-20 20:23 36.081235 -115.170528 89 2168ft 0kts
19-May-20 20:24 36.081235 -115.170528 89 2168ft 0kts
19-May-20 20:25 36.081235 -115.170528 89 2168ft 0kts
19-May-20 20:26 36.081235 -115.170528 89 2168ft 0kts
19-May-20 20:27 36.081235 -115.170528 89 2168ft 0kts
19-May-20 20:28 36.081235 -115.170528 89 2168ft 0kts
19-May-20 20:29 36.081235 -115.170528 89 2168ft 0kts
19-May-20 20:30 36.081194 -115.170283 106 2167ft 0kts
19-May-20 20:31 36.081194 -115.170283 106 2167ft 0kts
19-May-20 20:32 36.081295 -115.169601 47 2166ft 12kts
19-May-20 20:33 36.088207 -115.165385 17 2138ft 32kts
19-May-20 20:34 36.094973 -115.161503 23 2106ft 31kts
19-May-20 20:35 36.099669 -115.158197 72 2087ft 6kts
19-May-20 20:36 36.099845 -115.157563 82 2086ft 4kts
19-May-20 20:37 36.091766 -115.160809 211 2163ft 79kts
19-May-20 20:38 36.070779 -115.168393 193 2880ft 92kts
19-May-20 20:39 36.045695 -115.169841 190 3653ft 82kts
19-May-20 20:41 36.024103 -115.171373 193 4517ft 75kts
19-May-20 20:42 36.004712 -115.173077 192 5330ft 69kts
19-May-20 20:43 35.982350 -115.176371 191 5840ft 90kts
19-May-20 20:44 35.958153 -115.180596 192 6350ft 92kts
19-May-20 20:45 35.932028 -115.185225 192 6837ft 96kts
19-May-20 20:46 35.905077 -115.185173 170 7318ft 102kts
19-May-20 20:47 35.878039 -115.175005 169 7819ft 102kts
19-May-20 20:48 35.850927 -115.166135 185 8325ft 98kts
19-May-20 20:49 35.823977 -115.168012 189 8826ft 96kts
19-May-20 20:50 35.797330 -115.169319 186 9326ft 95kts
19-May-20 20:51 35.770954 -115.169631 187 9825ft 93kts
19-May-20 20:52 35.744240 -115.170239 187 10144ft 106kts
19-May-20 20:53 35.711676 -115.171119 185 10040ft 120kts
19-May-20 20:54 35.679102 -115.171777 185 10041ft 116kts
19-May-20 20:55 35.646910 -115.172414 185 10041ft 115kts
19-May-20 20:56 35.614989 -115.173036 185 10041ft 115kts
19-May-20 20:57 35.582973 -115.173664 185 10041ft 115kts
19-May-20 20:57 35.556350 -115.174180 185 10041ft 115kts
19-May-20 20:59 35.519122 -115.174905 185 10041ft 115kts
19-May-20 21:00 35.487094 -115.175521 185 10040ft 115kts
19-May-20 21:00 35.460404 -115.176039 185 10039ft 115kts
19-May-20 21:01 35.428365 -115.176660 185 10067ft 112kts
19-May-20 21:03 35.406582 -115.197924 246 10578ft 91kts
19-May-20 21:03 35.397977 -115.220900 242 10986ft 87kts
19-May-20 21:04 35.387021 -115.246360 240 11474ft 82kts
19-May-20 21:05 35.383517 -115.254147 240 11631ft 79kts
19-May-20 21:07 35.351108 -115.325055 247 12001ft 115kts
19-May-20 21:08 35.338176 -115.361024 247 12000ft 117kts
19-May-20 21:09 35.324423 -115.396575 241 12000ft 114kts
19-May-20 21:10 35.308950 -115.430576 239 12001ft 114kts
19-May-20 21:11 35.293505 -115.463122 239 12002ft 114kts
19-May-20 21:12 35.277992 -115.495428 239 12002ft 114kts
19-May-20 21:13 35.261875 -115.528858 239 12021ft 114kts
19-May-20 21:14 35.245533 -115.562687 239 12020ft 115kts
19-May-20 21:15 35.229178 -115.596506 239 12020ft 115kts
19-May-20 21:16 35.212750 -115.630438 239 12020ft 115kts
19-May-20 21:17 35.196375 -115.664224 238 12023ft 116kts
19-May-20 21:18 35.179905 -115.698174 238 12033ft 115kts
19-May-20 21:19 35.163482 -115.731993 238 12044ft 115kts
19-May-20 21:20 35.147108 -115.765678 238 12053ft 115kts
19-May-20 21:21 35.130854 -115.799088 238 12059ft 115kts
19-May-20 21:22 35.114554 -115.832558 238 12062ft 115kts
19-May-20 21:23 35.098155 -115.866196 238 12063ft 116kts
19-May-20 21:24 35.081644 -115.900035 238 12061ft 116kts
19-May-20 21:25 35.065117 -115.933873 238 12058ft 116kts
19-May-20 21:26 35.048592 -115.967672 238 12057ft 116kts
19-May-20 21:27 35.032098 -116.001360 239 12059ft 115kts
19-May-20 21:28 35.015671 -116.034883 240 12065ft 116kts
19-May-20 21:29 34.999046 -116.068796 241 12071ft 117kts
19-May-20 21:30 34.982294 -116.102942 241 12077ft 118kts
19-May-20 21:31 34.965187 -116.137779 242 12083ft 120kts
19-May-20 21:32 34.947851 -116.173046 242 12089ft 123kts
19-May-20 21:33 34.930096 -116.209129 242 12090ft 125kts
19-May-20 21:34 34.912041 -116.245774 241 12090ft 127kts
19-May-20 21:35 34.893724 -116.282904 241 12087ft 129kts
19-May-20 21:36 34.875199 -116.320401 240 12083ft 130kts
19-May-20 21:37 34.856413 -116.358364 240 12076ft 131kts
19-May-20 21:38 34.837618 -116.396322 240 12069ft 131kts
19-May-20 21:39 34.818846 -116.434192 240 12067ft 131kts
19-May-20 21:40 34.803320 -116.473426 263 12067ft 128kts
19-May-20 21:41 34.798609 -116.516527 265 12067ft 128kts
19-May-20 21:42 34.793410 -116.559605 259 12067ft 129kts
19-May-20 21:43 34.787755 -116.602290 262 12067ft 129kts
19-May-20 21:44 34.781659 -116.645701 262 12067ft 131kts
19-May-20 21:45 34.775614 -116.689316 262 12067ft 132kts
19-May-20 21:46 34.773304 -116.733539 269 12067ft 131kts
19-May-20 21:47 34.770254 -116.777741 266 12067ft 131kts
19-May-20 21:48 34.766857 -116.821950 265 12067ft 131kts
19-May-20 21:49 34.762155 -116.865982 264 12067ft 131kts
19-May-20 21:50 34.756909 -116.910111 264 12067ft 131kts
19-May-20 21:51 34.750990 -116.954085 264 12019ft 133kts
19-May-20 21:52 34.744477 -116.997782 264 11951ft 127kts
19-May-20 21:53 34.737639 -117.039179 264 11952ft 122kts
19-May-20 21:54 34.730757 -117.078831 264 11952ft 118kts
19-May-20 21:55 34.724099 -117.117183 266 11951ft 113kts
19-May-20 21:56 34.722585 -117.153817 277 11950ft 106kts
19-May-20 21:57 34.718337 -117.190200 267 11952ft 110kts
19-May-20 21:58 34.713419 -117.226946 267 11952ft 110kts
19-May-20 21:59 34.708560 -117.263886 267 11954ft 110kts
19-May-20 22:00 34.703802 -117.300601 267 11956ft 110kts
19-May-20 22:01 34.699118 -117.337308 267 11958ft 110kts
19-May-20 22:02 34.694660 -117.374141 269 11962ft 110kts
19-May-20 22:03 34.691321 -117.410790 270 11967ft 109kts
19-May-20 22:04 34.688049 -117.447598 270 11971ft 109kts
19-May-20 22:05 34.684863 -117.484234 270 11981ft 109kts
19-May-20 22:06 34.682409 -117.520727 274 11980ft 108kts
19-May-20 22:07 34.681675 -117.557185 274 11984ft 108kts
19-May-20 22:08 34.680932 -117.587427 273 11987ft 109kts
19-May-20 22:09 34.679823 -117.624299 273 11989ft 109kts
19-May-20 22:10 34.678070 -117.658234 270 11993ft 109kts
19-May-20 22:11 34.675464 -117.696033 0 11540ft 0kts
19-May-20 22:12 34.673339 -117.731263 270 11114ft 122kts
19-May-20 22:13 34.670741 -117.771854 268 10624ft 122kts
19-May-20 22:14 34.667531 -117.811640 269 10139ft 121kts
19-May-20 22:15 34.666429 -117.849853 276 9669ft 120kts
19-May-20 22:16 34.666957 -117.889644 268 9180ft 121kts
19-May-20 22:17 34.662160 -117.930372 264 8680ft 122kts
19-May-20 22:18 34.655917 -117.970296 263 8187ft 122kts
19-May-20 22:19 34.649417 -118.009149 263 8022ft 113kts
19-May-20 22:20 34.643284 -118.045381 263 8026ft 109kts
19-May-20 22:21 34.633403 -118.077141 252 8042ft 111kts
19-May-20 22:22 34.618475 -118.108931 0 8044ft 0kts
19-May-20 22:23 34.602253 -118.135834 239 8045ft 115kts
19-May-20 22:24 34.584113 -118.163839 238 8045ft 115kts
19-May-20 22:25 34.564045 -118.194105 237 8047ft 115kts
19-May-20 22:26 34.543983 -118.224124 236 8046ft 115kts
19-May-20 22:27 34.523805 -118.254249 236 8045ft 115kts
19-May-20 22:28 34.504583 -118.284788 237 8042ft 115kts
19-May-20 22:29 34.485275 -118.315648 237 8039ft 115kts
19-May-20 22:30 34.465942 -118.346543 237 8035ft 116kts
19-May-20 22:31 34.446503 -118.377573 237 8030ft 116kts
19-May-20 22:32 34.426212 -118.407332 232 8027ft 116kts
19-May-20 22:33 34.394423 -118.412870 165 8024ft 132kts
19-May-20 22:34 34.360515 -118.394441 159 7875ft 141kts
19-May-20 22:35 34.324408 -118.373482 159 7371ft 144kts
19-May-20 22:36 34.289571 -118.353240 159 7011ft 134kts
19-May-20 22:38 34.257101 -118.334403 159 7015ft 129kts
19-May-20 22:39 34.224886 -118.315738 159 7016ft 129kts
19-May-20 22:40 34.192621 -118.297056 159 7016ft 129kts
19-May-20 22:41 34.160286 -118.278348 159 7017ft 129kts
19-May-20 22:42 34.127190 -118.262841 158 7061ft 132kts
19-May-20 22:43 34.097592 -118.244895 158 6712ft 132kts
19-May-20 22:44 34.065179 -118.225200 163 6150ft 131kts
19-May-20 22:45 34.035209 -118.201159 149 5664ft 128kts
19-May-20 22:46 34.004752 -118.187529 178 5249ft 116kts
19-May-20 22:47 33.981533 -118.206653 247 4813ft 115kts
19-May-20 22:48 33.969059 -118.243249 248 4057ft 127kts
19-May-20 22:49 33.956293 -118.282396 252 3317ft 129kts
19-May-20 22:50 33.945003 -118.321577 258 2139ft 94kts
19-May-20 22:51 33.941334 -118.349323 260 1221ft 80kts
19-May-20 22:52 33.938563 -118.371202 264 568ft 59kts
19-May-20 22:53 33.936865 -118.387398 264 99ft 36kts
19-May-20 22:53 33.935275 -118.393762 179 103ft 0kts
19-May-20 22:55 33.934214 -118.395341 266 106ft 7kts
19-May-20 22:55 33.934024 -118.395668 104 106ft 0kts
19-May-20 22:56 33.934024 -118.395668 104 106ft 0kts
19-May-20 22:58 33.934024 -118.395668 104 106ft 0kts
19-May-20 22:58 33.934024 -118.395668 104 106ft 0kts
19-May-20 22:59 33.934024 -118.395668 104 106ft 0kts
19-May-20 23:00 33.934024 -118.395668 104 106ft 0kts
19-May-20 23:01 33.934024 -118.395668 104 106ft 0kts

Navigation Log

Ident Type
Flight plan parsing failed, navigation log unavailable